• Join FlightAware (Why Join?)
  • Login
  • US Flag 
01:00PM EDT


 

Airport Tracker/Info


-or-


 

Live Flight TrackerFlight Track Log ✈ DAL1515 ✈ 28-Jun-2013 ✈ KATL - KALB

Flight Track Log - Related Links

Times and Time Zones

All times are in EDT time to prevent confusion due to time zone crossing. See the DAL1515 flight status page for this flight to view local times or setup timezone preferences in your user account.

Time Position Orientation Groundspeed Altitude Reporting Facility
EDT Latitude Longitude Course Direction KTS MPH feet Rate Location/Type
10:18PM 33.6500 -84.4667 11° North 165 190 2,400  Level Atlanta TRACON
10:19PM 33.6667 -84.5333 287° West 239 275 3,500 1,920 Climbing Atlanta TRACON
10:20PM 33.7167 -84.5833 320° Northwest 273 314 6,300 2,700 Climbing Atlanta TRACON
10:21PM 33.9610 -84.2667 North  Level FlightAware Approximate
10:21PM 33.8000 -84.5833 360° North 277 319 8,900  Level Atlanta TRACON
10:22PM 34.0914 -84.2667 North  Level FlightAware Approximate
10:22PM 33.9036 -84.5794 North 299 344 10,900  Level Atlanta Center
10:23PM 34.2218 -84.2667 North  Level FlightAware Approximate
10:23PM 34.0061 -84.5700 North 342 394 12,500  Level Atlanta Center
10:24PM 34.3509 -84.2505 11° North  Level FlightAware Approximate
10:24PM 34.0917 -84.5656 North 352 405 15,800  Level Atlanta Center
10:25PM 34.2022 -84.5611 North 352 405 18,700 2,100 Climbing Atlanta Center
10:26PM 34.2878 -84.5517 North 344 396 20,100 1,260 Climbing Atlanta Center
10:27PM 34.3903 -84.5397 North 350 403 21,300 1,080 Climbing Atlanta Center
10:28PM 34.4925 -84.5025 17° North 365 420 22,300 900 Climbing Atlanta Center
10:29PM 34.6033 -84.4578 18° North 400 460 23,100 840 Climbing Atlanta Center
10:30PM 34.7203 -84.4078 19° North 431 496 24,000 960 Climbing Atlanta Center
10:31PM 34.8519 -84.3500 20° North 445 512 25,100 1,260 Climbing Atlanta Center
10:32PM 34.9586 -84.3050 19° North 452 520 26,600 1,320 Climbing Atlanta Center
10:33PM 35.0775 -84.2519 20° North 452 520 27,800 1,140 Climbing Atlanta Center
10:34PM 35.1986 -84.2014 19° North 447 514 28,900 600 Climbing Atlanta Center
10:35PM 35.3219 -84.1483 19° North 447 514 29,000 120 Climbing Atlanta Center
10:36PM 35.4428 -84.0975 19° North 452 520 29,200 780 Climbing Atlanta Center
10:37PM 35.5639 -84.0439 20° North 452 520 30,600 1,140 Climbing Atlanta Center
10:38PM 35.6828 -83.9928 19° North 452 520 31,500 720 Climbing Atlanta Center
10:39PM 35.8039 -83.9414 19° North 452 520 32,100 660 Climbing Atlanta Center
10:40PM 35.9247 -83.8822 22° Northeast 452 520 32,900 240 Climbing Atlanta Center
10:43PM 36.1786 -83.7211 27° Northeast 471 542 33,000  Climbing Indianapolis Center
10:44PM 36.2956 -83.6461 27° Northeast 475 547 33,000  Level Indianapolis Center
10:45PM 36.4117 -83.5714 27° Northeast 472 543 33,000  Level Indianapolis Center
10:46PM 36.5228 -83.5008 27° Northeast 476 548 33,000  Level Indianapolis Center
10:47PM 36.6586 -83.4053 29° Northeast 482 555 33,000  Level Indianapolis Center
10:48PM 36.7661 -83.3033 37° Northeast 483 556 33,000 -420 Level Indianapolis Center
10:49PM 36.8753 -83.2003 37° Northeast 489 563 32,200 -1,020 Descending Indianapolis Center
10:50PM 36.9786 -83.0906 40° Northeast 482 555 31,000 -600 Descending Indianapolis Center
10:51PM 37.0747 -82.9578 48° Northeast 503 579 31,000  Level Indianapolis Center
10:52PM 37.1689 -82.8250 48° Northeast 500 575 31,000  Level Indianapolis Center
10:53PM 37.2617 -82.6947 48° Northeast 501 577 31,000  Level Indianapolis Center
10:54PM 37.3561 -82.5622 48° Northeast 507 583 31,000  Level Indianapolis Center
10:55PM 37.4497 -82.4314 48° Northeast 504 580 31,000  Level Indianapolis Center
10:56PM 37.5447 -82.2975 48° Northeast 509 586 31,000  Level Indianapolis Center
10:57PM 37.6381 -82.1608 49° Northeast 511 588 31,000  Level Indianapolis Center
10:58PM 37.7306 -82.0258 49° Northeast 509 586 31,000  Level Indianapolis Center
10:59PM 37.8369 -81.8761 48° Northeast 513 590 31,000  Level Indianapolis Center
11:00PM 37.9306 -81.7392 49° Northeast 515 593 31,000  Level Indianapolis Center
11:01PM 38.0247 -81.6028 49° Northeast 515 593 31,000  Level Indianapolis Center
11:02PM 38.1175 -81.4636 50° Northeast 519 597 31,000  Level Indianapolis Center
11:03PM 38.2117 -81.3247 49° Northeast 521 600 31,000  Level Indianapolis Center
11:04PM 38.3064 -81.1847 49° Northeast 526 605 31,000  Level Indianapolis Center
11:05PM 38.4183 -81.0172 50° Northeast 523 602 31,000  Level Indianapolis Center
11:06PM 38.5125 -80.8764 49° Northeast 524 603 31,000  Level Indianapolis Center
11:07PM 38.6064 -80.7347 50° Northeast 525 604 31,000  Level Indianapolis Center
11:08PM 38.7022 -80.5922 49° Northeast 528 608 31,000  Level Indianapolis Center
11:09PM 38.7967 -80.4503 49° Northeast 527 606 31,000  Level Indianapolis Center
11:10PM 38.8928 -80.3058 49° Northeast 532 612 31,000  Level Indianapolis Center
11:11PM 38.9869 -80.1614 50° Northeast 529 609 31,000 -60 Level Indianapolis Center
11:12PM 39.0892 -80.0072 49° Northeast 529 609 30,900  Descending Indianapolis Center
11:13PM 39.1767 -79.8708 50° Northeast 531 611 31,000 60 Climbing Indianapolis Center
11:14PM 39.2431 -79.7736 49° Northeast 531 611 31,000  Level Cleveland Center
11:15PM 39.3358 -79.6303 50° Northeast 526 605 31,000  Level Cleveland Center
11:16PM 39.4303 -79.4811 51° Northeast 526 605 31,000  Level Cleveland Center
11:17PM 39.5206 -79.3400 50° Northeast 526 605 31,000  Level Cleveland Center
11:18PM 39.6147 -79.1925 50° Northeast 526 605 31,000  Level Cleveland Center
11:19PM 39.7108 -79.0422 50° Northeast 526 605 31,000  Level Cleveland Center
11:20PM 39.8003 -78.8942 52° Northeast 526 605 31,000  Level Cleveland Center
11:21PM 39.8939 -78.7431 51° Northeast 526 605 31,000  Level Cleveland Center
11:22PM 39.9892 -78.5914 51° Northeast 532 612 31,000  Level Cleveland Center
11:23PM 40.0803 -78.4422 51° Northeast 532 612 31,000  Level Cleveland Center
11:25PM 40.2997 -78.0844 51° Northeast 548 631 31,000  Level New York Center
11:26PM 40.3922 -77.9358 51° Northeast 543 625 31,000  Level New York Center
11:27PM 40.4847 -77.7844 51° Northeast 536 617 31,000  Level New York Center
11:28PM 40.5678 -77.6453 52° Northeast 536 617 31,000  Level New York Center
11:29PM 40.6578 -77.4956 52° Northeast 531 611 31,000  Level New York Center
11:30PM 40.7497 -77.3431 51° Northeast 531 611 31,000  Level New York Center
11:31PM 40.8392 -77.1950 51° Northeast 525 604 31,000 -540 Level New York Center
11:32PM 40.9286 -77.0414 52° Northeast 525 604 30,000 -1,200 Descending New York Center
11:33PM 41.0200 -76.8903 51° Northeast 525 604 28,600 -1,560 Descending New York Center
11:34PM 41.1092 -76.7358 53° Northeast 525 604 27,000 -1,560 Descending New York Center
11:35PM 41.2000 -76.5811 52° Northeast 525 604 25,600 -1,020 Descending New York Center
11:36PM 41.2886 -76.4286 52° Northeast 525 604 25,000 -300 Descending New York Center
11:37PM 41.3864 -76.2569 53° Northeast 535 616 25,000  Level New York Center
11:38PM 41.4767 -76.1011 52° Northeast 535 616 25,000 -300 Level New York Center
11:40PM 41.6236 -75.8478 52° Northeast 538 619 24,300 -420 Descending Boston Center
11:41PM 41.7094 -75.6939 53° Northeast 526 605 24,000 -180 Descending Boston Center
11:42PM 41.7950 -75.5422 53° Northeast 514 592 24,000  Level Boston Center
11:43PM 41.8806 -75.3931 52° Northeast 509 586 24,000  Level Boston Center
11:44PM 41.9636 -75.2406 54° Northeast 509 586 24,000 -540 Level Boston Center
11:45PM 42.0464 -75.0933 53° Northeast 509 586 23,000 -1,680 Descending Boston Center
11:46PM 42.1200 -74.9650 52° Northeast 496 571 20,700 -3,360 Descending Boston Center
11:47PM 42.1939 -74.8250 55° Northeast 438 504 16,600 -3,720 Descending Boston Center
11:47PM 42.2331 -74.7564 52° Northeast 428 493 15,100 -2,640 Descending Boston Center
11:48PM 42.3064 -74.6214 54° Northeast 411 473 12,400 -2,040 Descending Boston Center
11:49PM 42.3733 -74.4972 54° Northeast 404 465 11,000 -780 Descending Boston Center
11:50PM 42.4275 -74.3781 58° Northeast 363 418 10,900 -240 Descending Boston Center
11:51PM 42.4411 -74.3250 71° East 370 426 10,700 -1,140 Descending Boston Center
11:52PM 42.4703 -74.1881 74° East 322 371 9,100 -1,740 Descending Boston Center
11:53PM 42.4906 -74.0928 74° East 295 339 7,300 -1,980 Descending Boston Center
11:54PM 42.5150 -73.9781 74° East 295 339 5,200 -1,740 Descending Boston Center
11:55PM 42.5372 -73.8828 72° East 290 334 3,900 -960 Descending Boston Center
11:56PM 42.5756 -73.8131 53° Northeast 220 253 3,100 -720 Descending Boston Center
11:57PM 42.6319 -73.8031 North 178 205 2,400 -720 Descending Boston Center